createdAt,value
2023-03-15T00:00:56.597Z,4.67
2023-03-15T00:03:24.432Z,4.66
2023-03-15T00:05:52.452Z,4.65
2023-03-15T00:08:19.357Z,4.54
2023-03-15T00:10:47.455Z,4.53
2023-03-15T00:13:15.370Z,4.48
2023-03-15T00:15:50.467Z,4.45
2023-03-15T00:18:18.540Z,4.40
2023-03-15T00:20:45.501Z,4.37
2023-03-15T00:23:11.838Z,4.30
2023-03-15T00:25:38.111Z,4.22
2023-03-15T00:28:05.159Z,4.18
2023-03-15T00:30:32.136Z,4.12
2023-03-15T00:32:58.711Z,4.14
2023-03-15T00:35:25.501Z,4.06
2023-03-15T00:37:56.079Z,4.08
2023-03-15T00:40:23.214Z,4.03
2023-03-15T00:42:50.183Z,4.00
2023-03-15T00:45:21.151Z,3.93
2023-03-15T00:47:54.814Z,3.89
2023-03-15T00:50:23.226Z,3.81
2023-03-15T00:52:49.897Z,3.75
2023-03-15T00:55:18.680Z,3.75
2023-03-15T00:57:46.542Z,3.69
2023-03-15T01:00:16.647Z,3.63
2023-03-15T01:02:43.053Z,3.60
2023-03-15T01:05:10.464Z,3.54
2023-03-15T01:07:36.868Z,3.50
2023-03-15T01:10:05.719Z,3.49
2023-03-15T01:12:33.696Z,3.42
2023-03-15T01:15:01.728Z,3.36
2023-03-15T01:17:28.035Z,3.31
2023-03-15T01:19:54.436Z,3.30
2023-03-15T01:22:20.752Z,3.20
2023-03-15T01:24:47.763Z,3.12
2023-03-15T01:27:14.178Z,3.02
2023-03-15T01:29:40.418Z,2.99
2023-03-15T01:32:07.181Z,2.91
2023-03-15T01:34:34.217Z,2.89
2023-03-15T01:37:00.872Z,2.85
2023-03-15T01:39:27.180Z,2.84
2023-03-15T01:41:53.457Z,2.81
2023-03-15T01:44:20.398Z,2.82
2023-03-15T01:46:46.733Z,2.78
2023-03-15T01:49:32.190Z,2.74
2023-03-15T01:52:02.548Z,2.70
2023-03-15T01:54:34.714Z,2.70
2023-03-15T01:57:06.701Z,2.71
2023-03-15T01:59:45.005Z,2.69
2023-03-15T02:02:14.872Z,2.64
2023-03-15T02:04:49.667Z,2.61
2023-03-15T02:07:17.976Z,2.58
2023-03-15T02:09:57.168Z,2.51
2023-03-15T02:12:23.588Z,2.47
2023-03-15T02:14:52.018Z,2.41
2023-03-15T02:17:22.899Z,2.37
2023-03-15T02:20:01.701Z,2.30
2023-03-15T02:22:46.989Z,2.27
2023-03-15T02:25:26.224Z,2.27
2023-03-15T02:27:52.647Z,2.27
2023-03-15T02:30:19.295Z,2.28
2023-03-15T02:32:46.331Z,2.24
2023-03-15T02:35:12.940Z,2.25
2023-03-15T02:37:39.376Z,2.26
2023-03-15T02:40:18.479Z,2.24
2023-03-15T02:42:46.830Z,2.23
2023-03-15T02:45:13.443Z,2.18
2023-03-15T02:47:40.256Z,2.18
2023-03-15T02:50:08.137Z,2.18
2023-03-15T02:52:34.673Z,2.18
2023-03-15T02:55:02.088Z,2.17
2023-03-15T02:57:29.103Z,2.17
2023-03-15T02:59:56.789Z,2.19
2023-03-15T03:02:23.947Z,2.16
2023-03-15T03:04:52.549Z,2.20
2023-03-15T03:07:19.286Z,2.23
2023-03-15T03:09:45.629Z,2.27
2023-03-15T03:12:12.012Z,2.22
2023-03-15T03:14:38.303Z,2.19
2023-03-15T03:17:04.605Z,2.16
2023-03-15T03:19:30.902Z,2.14
2023-03-15T03:21:57.399Z,2.15
2023-03-15T03:24:25.719Z,2.10
2023-03-15T03:26:52.133Z,2.03
2023-03-15T03:29:18.405Z,2.02
2023-03-15T03:31:44.730Z,1.99
2023-03-15T03:34:14.478Z,1.98
2023-03-15T03:36:41.932Z,1.93
2023-03-15T03:39:08.234Z,1.88
2023-03-15T03:41:34.518Z,1.86
2023-03-15T03:44:00.835Z,1.86
2023-03-15T03:46:28.413Z,1.79
2023-03-15T03:48:55.953Z,1.84
2023-03-15T03:51:22.487Z,1.82
2023-03-15T03:53:48.833Z,1.84
2023-03-15T03:56:15.116Z,1.84
2023-03-15T03:58:41.445Z,1.87
2023-03-15T04:01:07.815Z,1.87
2023-03-15T04:03:34.105Z,1.86
2023-03-15T04:06:00.966Z,1.87
2023-03-15T04:08:27.310Z,1.83
2023-03-15T04:10:56.283Z,1.80
2023-03-15T04:13:24.074Z,1.69
2023-03-15T04:15:51.417Z,1.74
2023-03-15T04:18:17.941Z,1.75
2023-03-15T04:20:46.755Z,1.79
2023-03-15T04:23:18.968Z,1.77
2023-03-15T04:25:48.611Z,1.74
2023-03-15T04:28:14.965Z,1.73
2023-03-15T04:30:45.261Z,1.76
2023-03-15T04:33:11.599Z,1.70
2023-03-15T04:35:42.507Z,1.78
2023-03-15T04:38:09.318Z,1.79
2023-03-15T04:40:35.656Z,1.81
2023-03-15T04:43:04.214Z,1.84
2023-03-15T04:45:31.709Z,1.83
2023-03-15T04:47:58.454Z,1.83
2023-03-15T04:50:25.335Z,1.84
2023-03-15T04:52:51.668Z,1.84
2023-03-15T04:55:17.971Z,1.84
2023-03-15T04:57:44.271Z,1.80
2023-03-15T05:00:12.839Z,1.81
2023-03-15T05:02:41.452Z,1.81
2023-03-15T05:05:08.824Z,1.81
2023-03-15T05:07:35.849Z,1.79
2023-03-15T05:10:02.557Z,1.81
2023-03-15T05:12:29.022Z,1.86
2023-03-15T05:14:55.361Z,1.92
2023-03-15T05:17:22.459Z,2.01
2023-03-15T05:19:49.676Z,2.04
2023-03-15T05:22:15.949Z,2.11
2023-03-15T05:24:42.257Z,2.16
2023-03-15T05:27:08.569Z,2.20
2023-03-15T05:29:34.897Z,2.28
2023-03-15T05:32:04.242Z,2.34
2023-03-15T05:34:32.236Z,2.35
2023-03-15T05:36:59.497Z,2.34
2023-03-15T05:39:25.824Z,2.39
2023-03-15T05:41:52.210Z,2.42
2023-03-15T05:44:18.527Z,2.46
2023-03-15T05:46:44.825Z,2.51
2023-03-15T05:49:11.151Z,2.53
2023-03-15T05:51:37.451Z,2.53
2023-03-15T05:54:04.289Z,2.64
2023-03-15T05:56:30.595Z,2.66
2023-03-15T05:58:56.857Z,2.69
2023-03-15T06:01:23.499Z,2.70
2023-03-15T06:03:49.892Z,2.69
2023-03-15T06:06:16.268Z,2.70
2023-03-15T06:08:42.562Z,2.70
2023-03-15T06:11:08.854Z,2.70
2023-03-15T06:13:35.206Z,2.70
2023-03-15T06:16:01.580Z,2.70
2023-03-15T06:18:27.879Z,2.73
2023-03-15T06:20:54.180Z,2.72
2023-03-15T06:23:20.496Z,2.72
2023-03-15T06:25:47.023Z,2.70
2023-03-15T06:28:13.346Z,2.72
2023-03-15T06:30:40.851Z,2.72
2023-03-15T06:33:07.212Z,2.74
2023-03-15T06:35:33.512Z,2.75
2023-03-15T06:37:59.811Z,2.74
2023-03-15T06:40:26.097Z,2.72
2023-03-15T06:42:52.635Z,2.69
2023-03-15T06:45:18.933Z,2.66
2023-03-15T06:47:45.287Z,2.62
2023-03-15T06:50:11.771Z,2.57
2023-03-15T06:52:38.686Z,2.54
2023-03-15T06:55:05.506Z,2.51
2023-03-15T06:57:31.992Z,2.53
2023-03-15T06:59:58.284Z,2.52
2023-03-15T07:02:24.643Z,2.52
2023-03-15T07:04:51.015Z,2.58
2023-03-15T07:07:17.342Z,2.58
2023-03-15T07:09:43.704Z,2.64
2023-03-15T07:12:11.114Z,2.66
2023-03-15T07:14:37.578Z,2.63
2023-03-15T07:17:04.517Z,2.61
2023-03-15T07:19:30.831Z,2.64
2023-03-15T07:21:57.151Z,2.70
2023-03-15T07:24:23.490Z,2.82
2023-03-15T07:26:54.597Z,2.88
2023-03-15T07:29:20.904Z,3.01
2023-03-15T07:31:47.238Z,3.06
2023-03-15T07:34:13.584Z,3.12
2023-03-15T07:36:39.881Z,3.17
2023-03-15T07:39:06.218Z,3.19
2023-03-15T07:41:32.609Z,3.17
2023-03-15T07:43:59.006Z,3.12
2023-03-15T07:46:25.464Z,3.11
2023-03-15T07:48:51.836Z,3.05
2023-03-15T07:51:18.276Z,3.05
2023-03-15T07:53:44.798Z,3.05
2023-03-15T07:56:11.147Z,3.05
2023-03-15T07:58:37.474Z,3.01
2023-03-15T08:01:03.826Z,2.99
2023-03-15T08:03:30.268Z,3.10
2023-03-15T08:05:56.919Z,3.15
2023-03-15T08:08:23.299Z,3.16
2023-03-15T08:10:49.676Z,3.14
2023-03-15T08:13:16.128Z,3.08
2023-03-15T08:15:45.676Z,3.06
2023-03-15T08:18:12.036Z,3.10
2023-03-15T08:20:38.332Z,3.15
2023-03-15T08:23:04.645Z,3.13
2023-03-15T08:25:31.136Z,3.10
2023-03-15T08:27:57.510Z,3.10
2023-03-15T08:30:24.131Z,3.02
2023-03-15T08:32:52.522Z,3.06
2023-03-15T08:35:21.297Z,3.04
2023-03-15T08:37:48.224Z,2.92
2023-03-15T08:40:16.623Z,2.88
2023-03-15T08:42:42.984Z,2.84
2023-03-15T08:45:09.893Z,2.80
2023-03-15T08:47:37.002Z,2.82
2023-03-15T08:50:05.928Z,2.90
2023-03-15T08:52:32.937Z,2.97
2023-03-15T08:54:59.342Z,2.99
2023-03-15T08:57:26.443Z,3.08
2023-03-15T08:59:53.094Z,3.12
2023-03-15T09:02:19.460Z,3.16
2023-03-15T09:04:46.041Z,3.20
2023-03-15T09:07:12.463Z,3.12
2023-03-15T09:09:38.873Z,3.08
2023-03-15T09:12:05.426Z,2.99
2023-03-15T09:14:31.771Z,3.00
2023-03-15T09:16:58.136Z,2.96
2023-03-15T09:19:24.478Z,3.05
2023-03-15T09:21:51.216Z,3.13
2023-03-15T09:24:18.158Z,3.10
2023-03-15T09:26:44.474Z,3.20
2023-03-15T09:29:10.823Z,3.24
2023-03-15T09:31:37.144Z,3.28
2023-03-15T09:34:03.469Z,3.31
2023-03-15T09:36:29.796Z,3.36
2023-03-15T09:38:56.176Z,3.34
2023-03-15T09:41:42.927Z,3.25
2023-03-15T09:44:16.359Z,3.18
2023-03-15T09:46:54.175Z,3.13
2023-03-15T09:49:48.221Z,3.12
2023-03-15T09:52:27.472Z,3.08
2023-03-15T09:55:18.655Z,3.07
2023-03-15T09:57:50.778Z,3.00
2023-03-15T10:00:26.016Z,2.91
2023-03-15T10:03:01.566Z,3.00
2023-03-15T10:05:52.101Z,3.07
2023-03-15T10:08:19.824Z,3.16
2023-03-15T10:10:51.640Z,3.27
2023-03-15T10:13:40.021Z,3.42
2023-03-15T10:16:28.752Z,3.66
2023-03-15T10:19:04.928Z,3.87
2023-03-15T10:21:43.594Z,4.00
2023-03-15T10:24:17.894Z,4.11
2023-03-15T10:29:19.621Z,4.44
2023-03-15T10:31:47.171Z,4.46
2023-03-15T10:34:15.563Z,4.44
2023-03-15T10:36:49.666Z,4.39
2023-03-15T10:39:16.691Z,4.54
2023-03-15T10:41:45.245Z,4.75
2023-03-15T10:44:18.950Z,4.77
2023-03-15T10:47:21.392Z,4.79
2023-03-15T10:49:49.197Z,4.85
2023-03-15T10:52:38.514Z,4.93
2023-03-15T10:55:18.524Z,5.04
2023-03-15T10:57:54.587Z,5.26
2023-03-15T11:00:27.216Z,5.40
2023-03-15T11:03:16.081Z,5.40
2023-03-15T11:05:48.268Z,5.26
2023-03-15T11:08:17.682Z,5.21
2023-03-15T11:10:44.693Z,5.22
2023-03-15T11:13:23.107Z,5.34
2023-03-15T11:16:03.711Z,5.51
2023-03-15T11:18:35.210Z,5.60
2023-03-15T11:21:05.472Z,5.58
2023-03-15T11:23:37.530Z,5.43
2023-03-15T11:26:05.078Z,5.41
2023-03-15T11:28:33.218Z,5.47
2023-03-15T11:31:00.890Z,5.45
2023-03-15T11:33:45.867Z,5.53
2023-03-15T11:36:20.698Z,5.58
2023-03-15T11:38:47.370Z,5.62
2023-03-15T11:41:25.508Z,5.55
2023-03-15T11:44:03.584Z,5.49
2023-03-15T11:46:41.427Z,5.49
2023-03-15T11:49:29.253Z,5.52
2023-03-15T11:51:57.089Z,5.63
2023-03-15T11:54:26.357Z,5.66
2023-03-15T11:56:54.230Z,5.74
2023-03-15T11:59:25.982Z,5.81
2023-03-15T12:02:15.119Z,6.12
2023-03-15T12:04:49.547Z,6.51
2023-03-15T12:07:19.037Z,7.06
2023-03-15T12:09:51.996Z,7.48
2023-03-15T12:12:24.347Z,7.47
2023-03-15T12:15:15.226Z,7.15
2023-03-15T12:17:51.791Z,7.04
2023-03-15T12:20:38.004Z,6.95
2023-03-15T12:23:21.850Z,6.71
2023-03-15T12:25:55.425Z,6.42
2023-03-15T12:28:28.512Z,6.20
2023-03-15T12:30:59.027Z,6.09
2023-03-15T12:33:28.011Z,6.05
2023-03-15T12:36:11.237Z,5.93
2023-03-15T12:38:41.851Z,5.77
2023-03-15T12:41:29.398Z,5.64
2023-03-15T12:44:18.347Z,5.49
2023-03-15T12:46:44.618Z,5.42
2023-03-15T12:49:23.099Z,5.49
2023-03-15T12:52:01.066Z,5.58
2023-03-15T12:54:53.826Z,5.75
2023-03-15T12:57:36.981Z,6.00
2023-03-15T13:00:07.707Z,6.42
2023-03-15T13:02:44.866Z,7.36
2023-03-15T13:05:27.937Z,8.92
2023-03-15T13:08:15.902Z,9.05
2023-03-15T13:11:19.587Z,8.85
2023-03-15T13:14:10.919Z,8.11
2023-03-15T13:16:55.348Z,7.45
2023-03-15T13:19:41.787Z,7.13
2023-03-15T13:22:29.229Z,6.93
2023-03-15T13:24:57.688Z,6.69
2023-03-15T13:27:47.507Z,6.67
2023-03-15T13:30:25.873Z,6.65
2023-03-15T13:33:08.070Z,6.99
2023-03-15T13:35:43.925Z,7.78
2023-03-15T13:38:24.328Z,9.10
2023-03-15T13:40:51.099Z,10.39
2023-03-15T13:43:17.531Z,11.34
2023-03-15T13:45:44.299Z,11.83
2023-03-15T13:48:13.281Z,11.81
2023-03-15T13:50:40.383Z,11.64
2023-03-15T13:53:06.895Z,11.67
2023-03-15T13:55:35.573Z,12.11
2023-03-15T13:58:08.302Z,12.18
2023-03-15T14:00:36.687Z,11.51
2023-03-15T14:03:13.131Z,10.33
2023-03-15T14:05:45.824Z,9.53
2023-03-15T14:08:26.873Z,9.03
2023-03-15T14:11:02.175Z,8.60
2023-03-15T14:13:31.822Z,8.28
2023-03-15T14:16:07.516Z,8.11
2023-03-15T14:18:41.713Z,8.23
2023-03-15T14:21:15.772Z,8.56
2023-03-15T14:23:44.458Z,8.78
2023-03-15T14:26:10.700Z,8.70
2023-03-15T14:28:38.323Z,8.53
2023-03-15T14:31:04.818Z,8.48
2023-03-15T14:33:31.137Z,8.32
2023-03-15T14:36:00.436Z,8.19
2023-03-15T14:38:33.284Z,8.17
2023-03-15T14:41:27.343Z,8.33
2023-03-15T14:43:54.072Z,8.65
2023-03-15T14:46:20.960Z,8.71
2023-03-15T14:48:51.586Z,8.71
2023-03-15T14:51:20.932Z,8.52
2023-03-15T14:53:51.080Z,8.28
2023-03-15T14:56:19.688Z,8.05
2023-03-15T14:58:46.197Z,7.88
2023-03-15T15:01:16.286Z,7.76
2023-03-15T15:03:48.088Z,7.70
2023-03-15T15:06:15.585Z,7.65
2023-03-15T15:08:47.448Z,7.61
2023-03-15T15:11:15.371Z,7.58
2023-03-15T15:13:42.306Z,7.60
2023-03-15T15:16:08.693Z,7.66
2023-03-15T15:18:36.572Z,7.64
2023-03-15T15:21:19.767Z,7.76
2023-03-15T15:23:57.795Z,7.79
2023-03-15T15:26:26.961Z,7.79
2023-03-15T15:28:53.481Z,7.94
2023-03-15T15:31:25.492Z,8.32
2023-03-15T15:33:53.194Z,8.70
2023-03-15T15:36:23.826Z,9.02
2023-03-15T15:38:50.540Z,9.30
2023-03-15T15:41:28.264Z,9.48
2023-03-15T15:43:54.559Z,9.53
2023-03-15T15:46:21.002Z,9.43
2023-03-15T15:48:47.594Z,9.31
2023-03-15T15:51:22.761Z,9.14
2023-03-15T15:53:49.146Z,9.17
2023-03-15T15:56:15.879Z,9.31
2023-03-15T15:58:42.979Z,9.47
2023-03-15T16:01:16.366Z,9.29
2023-03-15T16:03:43.056Z,9.18
2023-03-15T16:06:17.631Z,9.10
2023-03-15T16:08:45.439Z,8.96
2023-03-15T16:11:14.938Z,8.73
2023-03-15T16:13:42.818Z,8.55
2023-03-15T16:16:14.516Z,8.50
2023-03-15T16:18:42.522Z,8.38
2023-03-15T16:21:29.149Z,8.27
2023-03-15T16:24:12.157Z,8.14
2023-03-15T16:26:39.535Z,8.10
2023-03-15T16:29:19.882Z,8.09
2023-03-15T16:31:47.067Z,7.94
2023-03-15T16:34:15.517Z,7.80
2023-03-15T16:36:43.807Z,7.81
2023-03-15T16:39:14.682Z,7.65
2023-03-15T16:41:41.747Z,7.57
2023-03-15T16:44:12.894Z,7.50
2023-03-15T16:46:39.298Z,7.45
2023-03-15T16:49:05.802Z,7.36
2023-03-15T16:51:32.897Z,7.23
2023-03-15T16:54:09.056Z,7.18
2023-03-15T16:56:41.469Z,7.09
2023-03-15T16:59:10.158Z,7.01
2023-03-15T17:01:36.545Z,6.94
2023-03-15T17:04:03.391Z,6.90
2023-03-15T17:06:31.285Z,6.82
2023-03-15T17:09:12.593Z,6.74
2023-03-15T17:11:41.174Z,6.70
2023-03-15T17:14:14.699Z,6.63
2023-03-15T17:16:41.027Z,6.55
2023-03-15T17:19:14.666Z,6.47
2023-03-15T17:21:42.703Z,6.43
2023-03-15T17:24:10.652Z,6.36
2023-03-15T17:26:37.581Z,6.27
2023-03-15T17:29:05.110Z,6.20
2023-03-15T17:31:34.130Z,6.11
2023-03-15T17:34:00.633Z,6.02
2023-03-15T17:36:32.781Z,5.95
2023-03-15T17:38:59.099Z,5.92
2023-03-15T17:41:34.305Z,5.86
2023-03-15T17:44:00.707Z,5.78
2023-03-15T17:46:32.846Z,5.67
2023-03-15T17:49:00.541Z,5.61
2023-03-15T17:51:30.128Z,5.52
2023-03-15T17:53:59.120Z,5.41
2023-03-15T17:56:26.841Z,5.34
2023-03-15T17:58:53.295Z,5.27
2023-03-15T18:01:23.134Z,5.18
2023-03-15T18:03:50.375Z,5.16
2023-03-15T18:06:18.491Z,5.09
2023-03-15T18:08:45.557Z,5.04
2023-03-15T18:11:16.916Z,4.96
2023-03-15T18:13:43.272Z,4.90
2023-03-15T18:16:14.450Z,4.83
2023-03-15T18:18:41.879Z,4.74
2023-03-15T18:21:13.951Z,4.67
2023-03-15T18:23:40.558Z,4.60
2023-03-15T18:26:06.951Z,4.53
2023-03-15T18:28:33.248Z,4.46
2023-03-15T18:30:59.539Z,4.41
2023-03-15T18:33:26.472Z,4.32
2023-03-15T18:35:53.514Z,4.25
2023-03-15T18:38:20.003Z,4.18
2023-03-15T18:40:46.262Z,4.11
2023-03-15T18:43:13.774Z,4.05
2023-03-15T18:45:40.495Z,4.00
2023-03-15T18:48:07.436Z,3.85
2023-03-15T18:50:34.663Z,3.83
2023-03-15T18:53:01.205Z,3.76
2023-03-15T18:55:27.473Z,3.69
2023-03-15T18:57:55.370Z,3.62
2023-03-15T19:00:29.221Z,3.60
2023-03-15T19:02:58.750Z,3.57
2023-03-15T19:05:26.186Z,3.55
2023-03-15T19:07:52.782Z,3.46
2023-03-15T19:10:21.143Z,3.44
2023-03-15T19:12:48.433Z,3.40
2023-03-15T19:15:17.433Z,3.33
2023-03-15T19:17:45.219Z,3.25
2023-03-15T19:20:13.423Z,3.23
2023-03-15T19:22:41.350Z,3.16
2023-03-15T19:25:11.277Z,3.08
2023-03-15T19:27:37.776Z,3.07
2023-03-15T19:30:07.313Z,3.04
2023-03-15T19:32:34.866Z,2.93
2023-03-15T19:35:01.307Z,2.87
2023-03-15T19:37:27.975Z,2.82
2023-03-15T19:39:54.432Z,2.76
2023-03-15T19:42:20.740Z,2.70
2023-03-15T19:44:48.328Z,2.70
2023-03-15T19:47:14.632Z,2.64
2023-03-15T19:49:41.204Z,2.59
2023-03-15T19:52:07.606Z,2.58
2023-03-15T19:54:34.149Z,2.55
2023-03-15T19:57:00.852Z,2.57
2023-03-15T19:59:27.192Z,2.56
2023-03-15T20:01:53.581Z,2.41
2023-03-15T20:04:19.986Z,2.41
2023-03-15T20:06:46.412Z,2.34
2023-03-15T20:09:12.724Z,2.26
2023-03-15T20:11:39.027Z,2.21
2023-03-15T20:14:05.318Z,2.20
2023-03-15T20:16:31.698Z,2.19
2023-03-15T20:18:58.122Z,2.19
2023-03-15T20:21:24.505Z,2.16
2023-03-15T20:23:50.942Z,2.12
2023-03-15T20:26:18.287Z,1.97
2023-03-15T20:28:46.968Z,2.00
2023-03-15T20:31:18.160Z,1.95
2023-03-15T20:33:47.318Z,1.94
2023-03-15T20:36:14.590Z,1.94
2023-03-15T20:38:40.953Z,1.92
2023-03-15T20:41:07.779Z,1.86
2023-03-15T20:43:34.818Z,1.86
2023-03-15T20:46:04.061Z,1.80
2023-03-15T20:48:33.652Z,1.76
2023-03-15T20:51:00.100Z,1.62
2023-03-15T20:53:26.421Z,1.66
2023-03-15T20:55:52.725Z,1.60
2023-03-15T20:58:19.058Z,1.64
2023-03-15T21:00:45.544Z,1.63
2023-03-15T21:03:13.768Z,1.59
2023-03-15T21:05:42.097Z,1.55
2023-03-15T21:08:09.355Z,1.50
2023-03-15T21:10:37.042Z,1.48
2023-03-15T21:13:09.481Z,1.48
2023-03-15T21:15:49.046Z,1.47
2023-03-15T21:18:16.943Z,1.46
2023-03-15T21:20:43.818Z,1.45
2023-03-15T21:23:11.080Z,1.41
2023-03-15T21:25:37.641Z,1.41
2023-03-15T21:28:04.319Z,1.37
2023-03-15T21:30:31.284Z,1.31
2023-03-15T21:32:57.630Z,1.28
2023-03-15T21:35:25.401Z,1.26
2023-03-15T21:37:51.922Z,1.23
2023-03-15T21:40:18.230Z,1.24
2023-03-15T21:42:47.440Z,1.11
2023-03-15T21:45:13.752Z,1.16
2023-03-15T21:47:40.171Z,1.16
2023-03-15T21:50:07.204Z,1.15
2023-03-15T21:52:33.767Z,1.10
2023-03-15T21:55:00.085Z,1.13
2023-03-15T21:57:26.466Z,1.11
2023-03-15T21:59:52.743Z,1.08
2023-03-15T22:02:19.159Z,1.04
2023-03-15T22:04:45.630Z,1.06
2023-03-15T22:07:12.565Z,1.06
2023-03-15T22:09:39.001Z,1.04
2023-03-15T22:12:05.632Z,1.02
2023-03-15T22:14:31.932Z,1.00
2023-03-15T22:16:58.252Z,0.97
2023-03-15T22:19:24.976Z,0.93
2023-03-15T22:21:52.667Z,0.90
2023-03-15T22:24:18.975Z,0.87
2023-03-15T22:26:45.308Z,0.86
2023-03-15T22:29:11.878Z,0.87
2023-03-15T22:31:38.185Z,0.81
2023-03-15T22:34:05.728Z,0.81
2023-03-15T22:36:34.683Z,0.79
2023-03-15T22:39:01.862Z,0.75
2023-03-15T22:41:28.256Z,0.78
2023-03-15T22:43:55.262Z,0.78
2023-03-15T22:46:21.837Z,0.76
2023-03-15T22:48:48.177Z,0.77
2023-03-15T22:51:15.896Z,0.71
2023-03-15T22:53:42.498Z,0.72
2023-03-15T22:56:08.907Z,0.69
2023-03-15T22:58:35.551Z,0.69
2023-03-15T23:01:02.043Z,0.66
2023-03-15T23:03:28.441Z,0.68
2023-03-15T23:05:55.570Z,0.66
2023-03-15T23:08:22.847Z,0.67
2023-03-15T23:10:49.097Z,0.67
2023-03-15T23:13:15.859Z,0.65
2023-03-15T23:15:43.288Z,0.64
2023-03-15T23:18:09.797Z,0.64
2023-03-15T23:20:37.536Z,0.64
2023-03-15T23:23:03.853Z,0.64
2023-03-15T23:25:30.194Z,0.62
2023-03-15T23:27:56.882Z,0.59
2023-03-15T23:30:23.343Z,0.57
2023-03-15T23:32:51.873Z,0.54
2023-03-15T23:35:18.249Z,0.54
2023-03-15T23:37:44.543Z,0.53
2023-03-15T23:40:12.630Z,0.46
2023-03-15T23:42:38.893Z,0.51
2023-03-15T23:45:06.759Z,0.50
2023-03-15T23:47:33.117Z,0.47
2023-03-15T23:49:59.801Z,0.46
2023-03-15T23:52:26.118Z,0.46
2023-03-15T23:54:53.768Z,0.45
2023-03-15T23:57:20.839Z,0.44
2023-03-15T23:59:47.230Z,0.34
